createdAt,value
2023-02-27T00:00:41.256Z,144.20
2023-02-27T00:05:43.433Z,162.13
2023-02-27T00:10:45.363Z,151.57
2023-02-27T00:15:48.075Z,173.30
2023-02-27T00:20:50.194Z,172.67
2023-02-27T00:25:52.476Z,165.93
2023-02-27T00:30:54.629Z,172.40
2023-02-27T00:35:58.636Z,169.93
2023-02-27T00:41:00.649Z,168.18
2023-02-27T00:46:02.785Z,165.20
2023-02-27T00:51:04.870Z,163.68
2023-02-27T00:56:07.221Z,166.45
2023-02-27T01:01:09.137Z,163.43
2023-02-27T01:06:11.047Z,166.57
2023-02-27T01:11:12.945Z,168.05
2023-02-27T01:16:15.125Z,164.70
2023-02-27T01:21:17.296Z,167.57
2023-02-27T01:26:20.599Z,169.63
2023-02-27T01:31:22.534Z,188.63
2023-02-27T01:36:24.468Z,178.90
2023-02-27T01:41:26.592Z,174.05
2023-02-27T01:46:30.863Z,176.32
2023-02-27T01:51:37.315Z,170.95
2023-02-27T01:56:39.503Z,166.77
2023-02-27T02:01:41.711Z,163.90
2023-02-27T02:06:47.726Z,165.35
2023-02-27T02:11:49.704Z,158.75
2023-02-27T02:17:11.490Z,165.23
2023-02-27T02:22:16.926Z,168.00
2023-02-27T02:27:26.706Z,164.30
2023-02-27T02:32:37.755Z,167.73
2023-02-27T02:38:02.130Z,169.27
2023-02-27T02:43:27.855Z,167.98
2023-02-27T02:48:39.756Z,160.55
2023-02-27T02:53:45.867Z,159.57
2023-02-27T02:59:07.784Z,161.80
2023-02-27T03:04:15.604Z,163.25
2023-02-27T03:09:25.650Z,157.48
2023-02-27T03:14:32.926Z,154.63
2023-02-27T03:19:44.581Z,158.43
2023-02-27T03:24:59.413Z,155.50
2023-02-27T03:30:07.975Z,148.87
2023-02-27T03:35:11.962Z,159.33
2023-02-27T03:40:25.620Z,160.63
2023-02-27T03:45:37.533Z,156.50
2023-02-27T03:50:39.631Z,154.97
2023-02-27T03:55:45.351Z,157.20
2023-02-27T04:00:47.349Z,151.13
2023-02-27T04:05:50.830Z,157.30
2023-02-27T04:11:12.197Z,160.57
2023-02-27T04:16:20.093Z,152.60
2023-02-27T04:21:36.291Z,170.67
2023-02-27T04:26:48.431Z,157.40
2023-02-27T04:31:55.556Z,172.83
2023-02-27T04:37:22.226Z,156.43
2023-02-27T04:42:29.321Z,146.60
2023-02-27T04:47:38.636Z,147.07
2023-02-27T04:52:50.388Z,151.03
2023-02-27T04:58:28.351Z,154.70
2023-02-27T05:03:38.779Z,152.75
2023-02-27T05:08:55.924Z,148.77
2023-02-27T05:14:24.205Z,156.73
2023-02-27T05:19:26.280Z,154.67
2023-02-27T05:24:51.691Z,149.20
2023-02-27T05:30:05.958Z,152.93
2023-02-27T05:35:20.167Z,162.47
2023-02-27T05:40:43.405Z,154.20
2023-02-27T05:45:48.204Z,154.57
2023-02-27T05:50:52.523Z,154.83
2023-02-27T05:55:56.597Z,149.93
2023-02-27T06:01:01.678Z,148.23
2023-02-27T06:06:07.329Z,148.77
2023-02-27T06:11:09.217Z,155.00
2023-02-27T06:16:13.581Z,149.40
2023-02-27T06:21:15.531Z,151.53
2023-02-27T06:26:17.905Z,153.60
2023-02-27T06:31:19.852Z,147.30
2023-02-27T06:36:23.077Z,154.13
2023-02-27T06:41:25.050Z,156.57
2023-02-27T06:46:27.320Z,153.27
2023-02-27T06:51:29.517Z,159.27
2023-02-27T06:56:31.421Z,153.20
2023-02-27T07:01:33.395Z,155.53
2023-02-27T07:07:36.324Z,165.80
2023-02-27T07:11:57.180Z,154.40
2023-02-27T07:17:03.227Z,155.40
2023-02-27T07:22:05.367Z,160.27
2023-02-27T07:27:07.269Z,154.67
2023-02-27T07:32:09.345Z,155.53
2023-02-27T07:37:11.541Z,155.37
2023-02-27T07:42:13.401Z,162.10
2023-02-27T07:47:15.291Z,211.70
2023-02-27T07:52:17.317Z,167.27
2023-02-27T07:57:19.309Z,176.95
2023-02-27T08:02:21.246Z,178.88
2023-02-27T08:07:23.239Z,176.57
2023-02-27T08:12:25.325Z,207.73
2023-02-27T08:17:27.225Z,207.47
2023-02-27T08:22:29.097Z,183.83
2023-02-27T08:27:30.946Z,154.00
2023-02-27T08:32:33.768Z,164.73
2023-02-27T08:37:35.730Z,188.45
2023-02-27T08:42:37.823Z,195.95
2023-02-27T08:47:39.648Z,210.15
2023-02-27T08:52:41.596Z,204.00
2023-02-27T08:57:43.485Z,171.53
2023-02-27T09:02:45.425Z,260.37
2023-02-27T09:07:47.438Z,243.03
2023-02-27T09:12:49.411Z,169.33
2023-02-27T09:17:52.026Z,196.73
2023-02-27T09:22:53.965Z,229.57
2023-02-27T09:27:56.203Z,234.73
2023-02-27T09:32:58.551Z,248.70
2023-02-27T09:38:00.525Z,262.85
2023-02-27T09:43:21.962Z,235.20
2023-02-27T09:48:45.772Z,256.13
2023-02-27T09:54:01.833Z,264.63
2023-02-27T09:59:12.884Z,279.00
2023-02-27T10:04:39.673Z,275.95
2023-02-27T10:10:07.825Z,284.10
2023-02-27T10:20:30.837Z,293.38
2023-02-27T10:25:39.950Z,292.45
2023-02-27T10:30:46.948Z,303.95
2023-02-27T10:35:52.094Z,312.00
2023-02-27T10:40:56.558Z,313.67
2023-02-27T10:46:13.910Z,317.98
2023-02-27T10:51:20.783Z,312.33
2023-02-27T10:56:27.178Z,330.35
2023-02-27T11:01:44.894Z,332.67
2023-02-27T11:06:52.472Z,350.08
2023-02-27T11:16:59.901Z,329.90
2023-02-27T11:22:16.524Z,332.75
2023-02-27T11:27:26.497Z,306.17
2023-02-27T11:32:48.197Z,306.42
2023-02-27T11:37:51.557Z,307.95
2023-02-27T11:42:57.075Z,316.55
2023-02-27T11:48:07.742Z,310.30
2023-02-27T11:53:12.641Z,337.83
2023-02-27T11:58:19.282Z,345.50
2023-02-27T12:03:28.914Z,349.23
2023-02-27T12:08:44.622Z,338.63
2023-02-27T12:13:53.233Z,356.17
2023-02-27T12:18:59.706Z,346.10
2023-02-27T12:24:32.111Z,337.40
2023-02-27T12:29:47.195Z,347.17
2023-02-27T12:34:54.295Z,357.50
2023-02-27T12:39:59.959Z,361.25
2023-02-27T12:45:26.779Z,371.25
2023-02-27T12:50:43.864Z,374.38
2023-02-27T12:56:17.313Z,373.97
2023-02-27T13:01:42.286Z,369.33
2023-02-27T13:06:58.248Z,373.63
2023-02-27T13:12:36.706Z,368.50
2023-02-27T13:22:57.604Z,347.13
2023-02-27T13:28:04.906Z,345.17
2023-02-27T13:33:19.309Z,350.23
2023-02-27T13:38:35.372Z,360.88
2023-02-27T13:43:51.114Z,334.42
2023-02-27T13:49:05.411Z,336.02
2023-02-27T13:54:13.354Z,330.08
2023-02-27T13:59:39.672Z,349.30
2023-02-27T14:04:51.540Z,339.20
2023-02-27T14:10:03.524Z,342.42
2023-02-27T14:15:27.600Z,337.65
2023-02-27T14:20:30.813Z,333.85
2023-02-27T14:25:40.084Z,350.20
2023-02-27T14:30:57.173Z,342.23
2023-02-27T14:36:02.845Z,337.70
2023-02-27T14:41:28.347Z,352.70
2023-02-27T14:46:35.866Z,348.42
2023-02-27T14:51:38.573Z,363.60
2023-02-27T14:56:42.066Z,333.05
2023-02-27T15:01:44.123Z,328.70
2023-02-27T15:06:54.597Z,322.10
2023-02-27T15:12:03.981Z,330.65
2023-02-27T15:17:18.616Z,328.65
2023-02-27T15:22:38.038Z,326.25
2023-02-27T15:27:42.466Z,321.25
2023-02-27T15:32:46.810Z,313.67
2023-02-27T15:37:58.036Z,322.25
2023-02-27T15:43:00.619Z,306.08
2023-02-27T15:48:03.560Z,306.02
2023-02-27T15:53:08.423Z,298.48
2023-02-27T15:58:29.514Z,298.67
2023-02-27T16:03:43.101Z,301.38
2023-02-27T16:08:48.240Z,302.67
2023-02-27T16:13:51.066Z,301.92
2023-02-27T16:18:55.490Z,292.67
2023-02-27T16:24:18.299Z,290.13
2023-02-27T16:29:30.638Z,283.35
2023-02-27T16:34:47.781Z,280.17
2023-02-27T16:39:52.318Z,281.58
2023-02-27T16:44:54.365Z,271.80
2023-02-27T16:49:56.421Z,280.88
2023-02-27T16:54:58.378Z,287.02
2023-02-27T17:00:00.302Z,278.98
2023-02-27T17:05:02.986Z,272.67
2023-02-27T17:10:05.402Z,274.90
2023-02-27T17:15:07.792Z,270.63
2023-02-27T17:20:11.497Z,285.77
2023-02-27T17:25:14.803Z,269.17
2023-02-27T17:30:16.824Z,277.88
2023-02-27T17:35:18.946Z,288.23
2023-02-27T17:40:21.006Z,283.00
2023-02-27T17:45:24.720Z,284.02
2023-02-27T17:50:26.850Z,279.80
2023-02-27T17:55:28.783Z,277.13
2023-02-27T18:00:30.734Z,267.63
2023-02-27T18:05:32.706Z,269.15
2023-02-27T18:10:34.784Z,273.45
2023-02-27T18:15:37.183Z,265.00
2023-02-27T18:20:40.445Z,261.33
2023-02-27T18:25:42.348Z,264.33
2023-02-27T18:30:44.385Z,273.20
2023-02-27T18:35:46.752Z,259.48
2023-02-27T18:40:48.717Z,261.67
2023-02-27T18:45:50.664Z,254.85
2023-02-27T18:50:52.651Z,251.00
2023-02-27T18:56:03.786Z,253.40
2023-02-27T19:01:07.465Z,250.33
2023-02-27T19:06:09.391Z,242.17
2023-02-27T19:11:20.068Z,247.83
2023-02-27T19:16:22.067Z,246.82
2023-02-27T19:21:25.098Z,253.67
2023-02-27T19:26:27.735Z,250.03
2023-02-27T19:31:30.329Z,243.33
2023-02-27T19:36:34.632Z,253.07
2023-02-27T19:41:36.648Z,247.57
2023-02-27T19:46:41.194Z,248.80
2023-02-27T19:51:43.552Z,253.65
2023-02-27T19:56:45.445Z,248.65
2023-02-27T20:01:47.908Z,255.80
2023-02-27T20:06:53.939Z,241.70
2023-02-27T20:11:58.202Z,251.43
2023-02-27T20:17:01.361Z,244.20
2023-02-27T20:22:04.338Z,246.18
2023-02-27T20:27:07.330Z,242.25
2023-02-27T20:32:09.564Z,233.13
2023-02-27T20:37:11.551Z,238.18
2023-02-27T20:42:14.211Z,223.27
2023-02-27T20:47:16.525Z,231.25
2023-02-27T20:52:19.771Z,224.88
2023-02-27T20:57:24.916Z,223.52
2023-02-27T21:02:26.956Z,231.35
2023-02-27T21:07:29.083Z,230.73
2023-02-27T21:12:31.019Z,219.10
2023-02-27T21:17:33.260Z,228.02
2023-02-27T21:22:35.596Z,222.88
2023-02-27T21:27:37.577Z,227.13
2023-02-27T21:32:39.529Z,215.82
2023-02-27T21:37:46.742Z,216.93
2023-02-27T21:42:49.640Z,212.57
2023-02-27T21:47:51.659Z,216.23
2023-02-27T21:52:53.878Z,207.77
2023-02-27T21:57:55.865Z,257.47
2023-02-27T22:02:57.835Z,242.70
2023-02-27T22:07:59.799Z,244.37
2023-02-27T22:13:02.249Z,211.83
2023-02-27T22:18:06.446Z,236.17
2023-02-27T22:23:08.494Z,202.30
2023-02-27T22:28:10.936Z,195.63
2023-02-27T22:33:12.812Z,174.60
2023-02-27T22:38:14.771Z,218.73
2023-02-27T22:43:17.643Z,199.27
2023-02-27T22:48:19.498Z,231.00
2023-02-27T22:53:21.624Z,193.80
2023-02-27T22:58:24.288Z,207.17
2023-02-27T23:03:26.220Z,169.07
2023-02-27T23:08:28.217Z,203.37
2023-02-27T23:13:32.101Z,203.93
2023-02-27T23:18:33.995Z,203.70
2023-02-27T23:23:36.236Z,198.57
2023-02-27T23:28:38.555Z,168.57
2023-02-27T23:33:40.501Z,176.83
2023-02-27T23:38:43.074Z,149.73
2023-02-27T23:44:03.674Z,162.43
2023-02-27T23:49:05.684Z,222.17
2023-02-27T23:54:07.774Z,176.90
2023-02-27T23:59:09.848Z,154.33
